sensor_id;sensor_type;location;lat;lon;timestamp;P1;durP1;ratioP1;P2;durP2;ratioP2
77298;SDS011;66361;52.034;20.656;2024-02-26T00:00:06;25.65;;;13.82;;
77298;SDS011;66361;52.034;20.656;2024-02-26T00:04:12;27.45;;;13.88;;
77298;SDS011;66361;52.034;20.656;2024-02-26T00:07:58;31.02;;;14.82;;
77298;SDS011;66361;52.034;20.656;2024-02-26T00:11:46;28.50;;;15.30;;
77298;SDS011;66361;52.034;20.656;2024-02-26T00:15:30;23.60;;;13.70;;
77298;SDS011;66361;52.034;20.656;2024-02-26T00:19:14;28.63;;;14.05;;
77298;SDS011;66361;52.034;20.656;2024-02-26T00:23:00;27.00;;;14.75;;
77298;SDS011;66361;52.034;20.656;2024-02-26T00:26:44;23.10;;;12.77;;
77298;SDS011;66361;52.034;20.656;2024-02-26T00:30:28;25.00;;;12.70;;
77298;SDS011;66361;52.034;20.656;2024-02-26T00:34:12;25.77;;;13.98;;
77298;SDS011;66361;52.034;20.656;2024-02-26T00:37:56;20.48;;;11.30;;
77298;SDS011;66361;52.034;20.656;2024-02-26T00:41:42;27.40;;;13.23;;
77298;SDS011;66361;52.034;20.656;2024-02-26T00:45:25;31.15;;;14.75;;
77298;SDS011;66361;52.034;20.656;2024-02-26T00:49:12;25.60;;;13.70;;
77298;SDS011;66361;52.034;20.656;2024-02-26T00:52:57;25.30;;;12.65;;
77298;SDS011;66361;52.034;20.656;2024-02-26T00:56:42;23.92;;;13.13;;
77298;SDS011;66361;52.034;20.656;2024-02-26T01:00:26;22.38;;;11.68;;
77298;SDS011;66361;52.034;20.656;2024-02-26T01:04:11;22.88;;;12.85;;
77298;SDS011;66361;52.034;20.656;2024-02-26T01:07:55;23.60;;;12.77;;
77298;SDS011;66361;52.034;20.656;2024-02-26T01:11:39;27.85;;;14.07;;
77298;SDS011;66361;52.034;20.656;2024-02-26T01:15:28;32.15;;;14.02;;
77298;SDS011;66361;52.034;20.656;2024-02-26T01:22:56;31.50;;;14.93;;
77298;SDS011;66361;52.034;20.656;2024-02-26T01:26:39;27.17;;;13.48;;
77298;SDS011;66361;52.034;20.656;2024-02-26T01:30:23;27.52;;;14.80;;
77298;SDS011;66361;52.034;20.656;2024-02-26T01:34:08;28.05;;;14.80;;
77298;SDS011;66361;52.034;20.656;2024-02-26T01:37:52;29.63;;;14.20;;
77298;SDS011;66361;52.034;20.656;2024-02-26T01:41:36;34.97;;;15.20;;
77298;SDS011;66361;52.034;20.656;2024-02-26T01:45:20;35.58;;;16.15;;
77298;SDS011;66361;52.034;20.656;2024-02-26T01:49:06;34.78;;;14.70;;
77298;SDS011;66361;52.034;20.656;2024-02-26T01:52:55;37.85;;;17.33;;
77298;SDS011;66361;52.034;20.656;2024-02-26T02:00:24;31.42;;;13.90;;
77298;SDS011;66361;52.034;20.656;2024-02-26T02:04:10;36.17;;;15.95;;
77298;SDS011;66361;52.034;20.656;2024-02-26T02:07:54;39.15;;;18.33;;
77298;SDS011;66361;52.034;20.656;2024-02-26T02:11:39;39.88;;;17.08;;
77298;SDS011;66361;52.034;20.656;2024-02-26T02:15:23;23.33;;;13.10;;
77298;SDS011;66361;52.034;20.656;2024-02-26T02:19:09;22.55;;;11.82;;
77298;SDS011;66361;52.034;20.656;2024-02-26T02:26:38;27.45;;;12.10;;
77298;SDS011;66361;52.034;20.656;2024-02-26T02:30:24;22.25;;;11.02;;
77298;SDS011;66361;52.034;20.656;2024-02-26T02:34:11;25.88;;;11.23;;
77298;SDS011;66361;52.034;20.656;2024-02-26T02:43:31;27.98;;;14.90;;
77298;SDS011;66361;52.034;20.656;2024-02-26T02:47:15;29.63;;;13.38;;
77298;SDS011;66361;52.034;20.656;2024-02-26T02:50:59;32.72;;;15.23;;
77298;SDS011;66361;52.034;20.656;2024-02-26T02:54:46;29.02;;;13.85;;
77298;SDS011;66361;52.034;20.656;2024-02-26T02:58:30;25.90;;;13.82;;
77298;SDS011;66361;52.034;20.656;2024-02-26T03:02:15;25.48;;;12.45;;
77298;SDS011;66361;52.034;20.656;2024-02-26T03:05:59;29.13;;;14.57;;
77298;SDS011;66361;52.034;20.656;2024-02-26T03:09:43;38.67;;;16.65;;
77298;SDS011;66361;52.034;20.656;2024-02-26T03:13:27;35.97;;;16.92;;
77298;SDS011;66361;52.034;20.656;2024-02-26T03:17:13;48.67;;;22.45;;
77298;SDS011;66361;52.034;20.656;2024-02-26T03:20:57;50.10;;;23.95;;
77298;SDS011;66361;52.034;20.656;2024-02-26T03:24:41;53.15;;;25.65;;
77298;SDS011;66361;52.034;20.656;2024-02-26T03:28:25;45.63;;;19.05;;
77298;SDS011;66361;52.034;20.656;2024-02-26T03:32:08;50.08;;;18.42;;
77298;SDS011;66361;52.034;20.656;2024-02-26T03:35:54;47.15;;;20.75;;
77298;SDS011;66361;52.034;20.656;2024-02-26T03:39:38;53.22;;;18.33;;
77298;SDS011;66361;52.034;20.656;2024-02-26T03:43:22;37.60;;;17.98;;
77298;SDS011;66361;52.034;20.656;2024-02-26T03:47:06;40.38;;;17.45;;
77298;SDS011;66361;52.034;20.656;2024-02-26T03:50:49;44.30;;;17.90;;
77298;SDS011;66361;52.034;20.656;2024-02-26T03:54:35;42.45;;;17.38;;
77298;SDS011;66361;52.034;20.656;2024-02-26T03:58:19;42.13;;;17.48;;
77298;SDS011;66361;52.034;20.656;2024-02-26T04:02:03;30.80;;;15.82;;
77298;SDS011;66361;52.034;20.656;2024-02-26T04:05:47;31.98;;;17.30;;
77298;SDS011;66361;52.034;20.656;2024-02-26T04:09:31;28.80;;;14.10;;
77298;SDS011;66361;52.034;20.656;2024-02-26T04:13:16;30.83;;;16.92;;
77298;SDS011;66361;52.034;20.656;2024-02-26T04:17:01;37.78;;;16.42;;
77298;SDS011;66361;52.034;20.656;2024-02-26T04:20:45;32.70;;;16.20;;
77298;SDS011;66361;52.034;20.656;2024-02-26T04:24:30;30.23;;;16.13;;
77298;SDS011;66361;52.034;20.656;2024-02-26T04:28:14;33.17;;;13.90;;
77298;SDS011;66361;52.034;20.656;2024-02-26T04:31:59;39.22;;;16.67;;
77298;SDS011;66361;52.034;20.656;2024-02-26T04:39:29;38.47;;;15.20;;
77298;SDS011;66361;52.034;20.656;2024-02-26T04:43:13;35.58;;;16.52;;
77298;SDS011;66361;52.034;20.656;2024-02-26T04:46:59;49.40;;;19.30;;
77298;SDS011;66361;52.034;20.656;2024-02-26T04:50:44;45.15;;;17.20;;
77298;SDS011;66361;52.034;20.656;2024-02-26T04:54:27;49.00;;;17.17;;
77298;SDS011;66361;52.034;20.656;2024-02-26T04:58:12;41.80;;;15.07;;
77298;SDS011;66361;52.034;20.656;2024-02-26T05:01:55;36.97;;;16.05;;
77298;SDS011;66361;52.034;20.656;2024-02-26T05:05:41;35.33;;;14.55;;
77298;SDS011;66361;52.034;20.656;2024-02-26T05:09:25;36.22;;;14.60;;
77298;SDS011;66361;52.034;20.656;2024-02-26T05:13:09;28.67;;;14.60;;
77298;SDS011;66361;52.034;20.656;2024-02-26T05:16:53;28.52;;;12.35;;
77298;SDS011;66361;52.034;20.656;2024-02-26T05:20:37;30.55;;;12.98;;
77298;SDS011;66361;52.034;20.656;2024-02-26T05:24:22;31.52;;;13.20;;
77298;SDS011;66361;52.034;20.656;2024-02-26T05:31:49;25.42;;;12.65;;
77298;SDS011;66361;52.034;20.656;2024-02-26T05:35:36;34.47;;;19.35;;
77298;SDS011;66361;52.034;20.656;2024-02-26T05:39:22;36.72;;;16.27;;
77298;SDS011;66361;52.034;20.656;2024-02-26T05:43:05;38.13;;;16.23;;
77298;SDS011;66361;52.034;20.656;2024-02-26T05:46:49;31.42;;;15.05;;
77298;SDS011;66361;52.034;20.656;2024-02-26T05:50:33;32.50;;;16.52;;
77298;SDS011;66361;52.034;20.656;2024-02-26T05:54:16;33.17;;;15.13;;
77298;SDS011;66361;52.034;20.656;2024-02-26T05:58:02;28.70;;;13.68;;
77298;SDS011;66361;52.034;20.656;2024-02-26T06:01:46;24.33;;;14.00;;
77298;SDS011;66361;52.034;20.656;2024-02-26T06:05:30;25.50;;;12.63;;
77298;SDS011;66361;52.034;20.656;2024-02-26T06:09:14;31.00;;;14.77;;
77298;SDS011;66361;52.034;20.656;2024-02-26T06:12:58;28.42;;;13.68;;
77298;SDS011;66361;52.034;20.656;2024-02-26T06:16:44;29.70;;;14.52;;
77298;SDS011;66361;52.034;20.656;2024-02-26T06:20:28;30.13;;;14.27;;
77298;SDS011;66361;52.034;20.656;2024-02-26T06:24:11;29.38;;;15.63;;
77298;SDS011;66361;52.034;20.656;2024-02-26T06:27:56;34.63;;;16.45;;
77298;SDS011;66361;52.034;20.656;2024-02-26T06:31:40;32.47;;;16.65;;
77298;SDS011;66361;52.034;20.656;2024-02-26T06:35:25;33.05;;;16.77;;
77298;SDS011;66361;52.034;20.656;2024-02-26T06:39:10;31.38;;;15.93;;
77298;SDS011;66361;52.034;20.656;2024-02-26T06:42:54;31.88;;;16.23;;
77298;SDS011;66361;52.034;20.656;2024-02-26T06:46:38;30.70;;;17.02;;
77298;SDS011;66361;52.034;20.656;2024-02-26T06:50:21;31.30;;;18.30;;
77298;SDS011;66361;52.034;20.656;2024-02-26T06:54:07;32.50;;;16.63;;
77298;SDS011;66361;52.034;20.656;2024-02-26T06:57:51;28.10;;;16.33;;
77298;SDS011;66361;52.034;20.656;2024-02-26T07:01:35;31.90;;;19.85;;
77298;SDS011;66361;52.034;20.656;2024-02-26T07:05:19;25.80;;;17.27;;
77298;SDS011;66361;52.034;20.656;2024-02-26T07:09:03;28.70;;;17.50;;
77298;SDS011;66361;52.034;20.656;2024-02-26T07:12:49;28.85;;;16.98;;
77298;SDS011;66361;52.034;20.656;2024-02-26T07:16:33;29.85;;;17.40;;
77298;SDS011;66361;52.034;20.656;2024-02-26T07:20:17;26.83;;;16.80;;
77298;SDS011;66361;52.034;20.656;2024-02-26T07:24:03;27.33;;;15.90;;
77298;SDS011;66361;52.034;20.656;2024-02-26T07:27:47;25.40;;;15.80;;
77298;SDS011;66361;52.034;20.656;2024-02-26T07:31:32;24.92;;;14.80;;
77298;SDS011;66361;52.034;20.656;2024-02-26T07:35:15;22.15;;;16.20;;
77298;SDS011;66361;52.034;20.656;2024-02-26T07:38:59;21.63;;;14.52;;
77298;SDS011;66361;52.034;20.656;2024-02-26T07:42:43;18.92;;;12.90;;
77298;SDS011;66361;52.034;20.656;2024-02-26T07:46:28;17.23;;;10.10;;
77298;SDS011;66361;52.034;20.656;2024-02-26T07:50:12;13.48;;;8.63;;
77298;SDS011;66361;52.034;20.656;2024-02-26T07:53:56;12.43;;;8.98;;
77298;SDS011;66361;52.034;20.656;2024-02-26T07:57:42;15.52;;;9.32;;
77298;SDS011;66361;52.034;20.656;2024-02-26T08:01:30;12.68;;;9.60;;
77298;SDS011;66361;52.034;20.656;2024-02-26T08:05:15;13.98;;;9.30;;
77298;SDS011;66361;52.034;20.656;2024-02-26T08:08:59;11.02;;;7.80;;
77298;SDS011;66361;52.034;20.656;2024-02-26T08:12:43;13.70;;;8.88;;
77298;SDS011;66361;52.034;20.656;2024-02-26T08:16:28;11.52;;;8.32;;
77298;SDS011;66361;52.034;20.656;2024-02-26T08:20:16;10.30;;;7.63;;
77298;SDS011;66361;52.034;20.656;2024-02-26T08:24:00;10.70;;;7.75;;
77298;SDS011;66361;52.034;20.656;2024-02-26T08:27:44;7.80;;;6.47;;
77298;SDS011;66361;52.034;20.656;2024-02-26T08:31:29;9.18;;;7.13;;
77298;SDS011;66361;52.034;20.656;2024-02-26T08:35:13;8.75;;;7.20;;
77298;SDS011;66361;52.034;20.656;2024-02-26T08:38:59;10.18;;;8.18;;
77298;SDS011;66361;52.034;20.656;2024-02-26T08:42:42;10.05;;;7.82;;
77298;SDS011;66361;52.034;20.656;2024-02-26T08:46:28;9.80;;;7.38;;
77298;SDS011;66361;52.034;20.656;2024-02-26T08:50:12;10.13;;;8.40;;
77298;SDS011;66361;52.034;20.656;2024-02-26T08:53:59;11.35;;;8.43;;
77298;SDS011;66361;52.034;20.656;2024-02-26T08:57:42;10.20;;;8.35;;
77298;SDS011;66361;52.034;20.656;2024-02-26T09:01:30;11.70;;;8.65;;
77298;SDS011;66361;52.034;20.656;2024-02-26T09:05:15;8.35;;;6.50;;
77298;SDS011;66361;52.034;20.656;2024-02-26T09:12:46;11.50;;;8.40;;
77298;SDS011;66361;52.034;20.656;2024-02-26T09:16:29;11.48;;;7.78;;
77298;SDS011;66361;52.034;20.656;2024-02-26T09:20:13;9.57;;;7.63;;
77298;SDS011;66361;52.034;20.656;2024-02-26T09:23:57;8.30;;;6.50;;
77298;SDS011;66361;52.034;20.656;2024-02-26T09:27:42;9.30;;;7.05;;
77298;SDS011;66361;52.034;20.656;2024-02-26T09:31:26;11.02;;;6.93;;
77298;SDS011;66361;52.034;20.656;2024-02-26T09:35:10;8.82;;;5.70;;
77298;SDS011;66361;52.034;20.656;2024-02-26T09:38:55;11.75;;;7.82;;
77298;SDS011;66361;52.034;20.656;2024-02-26T09:42:44;9.82;;;8.02;;
77298;SDS011;66361;52.034;20.656;2024-02-26T09:46:28;9.20;;;7.20;;
77298;SDS011;66361;52.034;20.656;2024-02-26T09:50:13;7.97;;;6.55;;
77298;SDS011;66361;52.034;20.656;2024-02-26T09:54:00;9.68;;;7.97;;
77298;SDS011;66361;52.034;20.656;2024-02-26T09:57:49;9.95;;;7.75;;
77298;SDS011;66361;52.034;20.656;2024-02-26T10:01:35;10.90;;;8.13;;
77298;SDS011;66361;52.034;20.656;2024-02-26T10:05:20;9.15;;;8.05;;
77298;SDS011;66361;52.034;20.656;2024-02-26T10:12:53;10.02;;;7.38;;
77298;SDS011;66361;52.034;20.656;2024-02-26T10:16:37;7.95;;;6.95;;
77298;SDS011;66361;52.034;20.656;2024-02-26T10:24:09;10.82;;;8.80;;
77298;SDS011;66361;52.034;20.656;2024-02-26T10:28:00;9.07;;;7.50;;
77298;SDS011;66361;52.034;20.656;2024-02-26T10:31:45;11.30;;;7.97;;
77298;SDS011;66361;52.034;20.656;2024-02-26T10:35:29;12.57;;;9.63;;
77298;SDS011;66361;52.034;20.656;2024-02-26T10:39:16;13.07;;;9.85;;
77298;SDS011;66361;52.034;20.656;2024-02-26T10:43:01;11.10;;;7.82;;
77298;SDS011;66361;52.034;20.656;2024-02-26T10:46:46;13.00;;;9.18;;
77298;SDS011;66361;52.034;20.656;2024-02-26T10:50:32;13.50;;;9.48;;
77298;SDS011;66361;52.034;20.656;2024-02-26T10:54:17;13.60;;;9.13;;
77298;SDS011;66361;52.034;20.656;2024-02-26T10:58:04;11.98;;;8.23;;
77298;SDS011;66361;52.034;20.656;2024-02-26T11:01:48;11.93;;;9.02;;
77298;SDS011;66361;52.034;20.656;2024-02-26T11:05:32;14.73;;;7.35;;
77298;SDS011;66361;52.034;20.656;2024-02-26T11:09:19;12.20;;;9.38;;
77298;SDS011;66361;52.034;20.656;2024-02-26T11:16:48;9.48;;;6.95;;
77298;SDS011;66361;52.034;20.656;2024-02-26T11:20:34;12.23;;;8.48;;
77298;SDS011;66361;52.034;20.656;2024-02-26T11:24:21;10.88;;;8.23;;
77298;SDS011;66361;52.034;20.656;2024-02-26T11:28:08;11.23;;;8.18;;
77298;SDS011;66361;52.034;20.656;2024-02-26T11:31:55;11.20;;;8.63;;
77298;SDS011;66361;52.034;20.656;2024-02-26T11:39:26;9.32;;;6.55;;
77298;SDS011;66361;52.034;20.656;2024-02-26T11:43:12;12.32;;;7.78;;
77298;SDS011;66361;52.034;20.656;2024-02-26T11:46:56;10.30;;;8.00;;
77298;SDS011;66361;52.034;20.656;2024-02-26T11:54:37;9.93;;;7.35;;
77298;SDS011;66361;52.034;20.656;2024-02-26T11:58:23;10.30;;;6.95;;
77298;SDS011;66361;52.034;20.656;2024-02-26T12:02:08;9.95;;;7.13;;
77298;SDS011;66361;52.034;20.656;2024-02-26T12:05:55;11.38;;;7.72;;
77298;SDS011;66361;52.034;20.656;2024-02-26T12:09:40;8.93;;;7.10;;
77298;SDS011;66361;52.034;20.656;2024-02-26T12:13:29;6.47;;;5.80;;
77298;SDS011;66361;52.034;20.656;2024-02-26T12:17:19;9.07;;;6.82;;
77298;SDS011;66361;52.034;20.656;2024-02-26T12:21:04;8.40;;;6.18;;
77298;SDS011;66361;52.034;20.656;2024-02-26T12:24:48;10.18;;;6.18;;
77298;SDS011;66361;52.034;20.656;2024-02-26T12:28:47;7.45;;;6.25;;
77298;SDS011;66361;52.034;20.656;2024-02-26T12:32:31;11.48;;;6.88;;
77298;SDS011;66361;52.034;20.656;2024-02-26T12:36:15;6.25;;;4.43;;
77298;SDS011;66361;52.034;20.656;2024-02-26T12:39:59;8.00;;;5.72;;
77298;SDS011;66361;52.034;20.656;2024-02-26T12:43:43;7.90;;;5.68;;
77298;SDS011;66361;52.034;20.656;2024-02-26T12:47:31;7.85;;;6.25;;
77298;SDS011;66361;52.034;20.656;2024-02-26T12:51:16;5.15;;;4.22;;
77298;SDS011;66361;52.034;20.656;2024-02-26T12:55:01;7.43;;;5.85;;
77298;SDS011;66361;52.034;20.656;2024-02-26T12:58:47;9.60;;;5.75;;
77298;SDS011;66361;52.034;20.656;2024-02-26T13:02:33;9.70;;;6.60;;
77298;SDS011;66361;52.034;20.656;2024-02-26T13:06:17;8.15;;;6.03;;
77298;SDS011;66361;52.034;20.656;2024-02-26T13:10:02;7.97;;;6.00;;
77298;SDS011;66361;52.034;20.656;2024-02-26T13:13:47;7.05;;;5.00;;
77298;SDS011;66361;52.034;20.656;2024-02-26T13:17:34;6.00;;;4.68;;
77298;SDS011;66361;52.034;20.656;2024-02-26T13:21:20;5.88;;;5.15;;
77298;SDS011;66361;52.034;20.656;2024-02-26T13:28:58;6.18;;;4.22;;
77298;SDS011;66361;52.034;20.656;2024-02-26T13:32:44;5.35;;;3.80;;
77298;SDS011;66361;52.034;20.656;2024-02-26T13:36:29;5.70;;;4.50;;
77298;SDS011;66361;52.034;20.656;2024-02-26T13:40:13;5.18;;;3.42;;
77298;SDS011;66361;52.034;20.656;2024-02-26T13:47:41;4.78;;;4.25;;
77298;SDS011;66361;52.034;20.656;2024-02-26T13:51:28;5.32;;;3.70;;
77298;SDS011;66361;52.034;20.656;2024-02-26T13:55:17;4.82;;;3.85;;
77298;SDS011;66361;52.034;20.656;2024-02-26T13:59:01;4.85;;;3.80;;
77298;SDS011;66361;52.034;20.656;2024-02-26T14:02:45;4.20;;;3.65;;
77298;SDS011;66361;52.034;20.656;2024-02-26T14:06:30;7.90;;;3.63;;
77298;SDS011;66361;52.034;20.656;2024-02-26T14:10:14;4.18;;;3.20;;
77298;SDS011;66361;52.034;20.656;2024-02-26T14:13:58;4.38;;;3.13;;
77298;SDS011;66361;52.034;20.656;2024-02-26T14:17:41;4.70;;;3.40;;
77298;SDS011;66361;52.034;20.656;2024-02-26T14:21:26;4.53;;;3.63;;
77298;SDS011;66361;52.034;20.656;2024-02-26T14:25:13;4.78;;;3.88;;
77298;SDS011;66361;52.034;20.656;2024-02-26T14:28:57;4.28;;;3.40;;
77298;SDS011;66361;52.034;20.656;2024-02-26T14:32:41;4.68;;;3.50;;
77298;SDS011;66361;52.034;20.656;2024-02-26T14:36:26;4.63;;;3.85;;
77298;SDS011;66361;52.034;20.656;2024-02-26T14:40:13;4.68;;;3.85;;
77298;SDS011;66361;52.034;20.656;2024-02-26T14:43:57;4.30;;;3.90;;
77298;SDS011;66361;52.034;20.656;2024-02-26T14:47:41;6.30;;;3.90;;
77298;SDS011;66361;52.034;20.656;2024-02-26T14:51:26;6.95;;;4.40;;
77298;SDS011;66361;52.034;20.656;2024-02-26T14:55:10;7.00;;;5.25;;
77298;SDS011;66361;52.034;20.656;2024-02-26T14:58:55;5.72;;;4.10;;
77298;SDS011;66361;52.034;20.656;2024-02-26T15:02:38;6.75;;;4.50;;
77298;SDS011;66361;52.034;20.656;2024-02-26T15:06:23;6.38;;;4.32;;
77298;SDS011;66361;52.034;20.656;2024-02-26T15:13:51;5.78;;;4.63;;
77298;SDS011;66361;52.034;20.656;2024-02-26T15:17:37;7.05;;;4.88;;
77298;SDS011;66361;52.034;20.656;2024-02-26T15:21:26;6.30;;;5.00;;
77298;SDS011;66361;52.034;20.656;2024-02-26T15:25:10;5.97;;;4.40;;
77298;SDS011;66361;52.034;20.656;2024-02-26T15:28:57;6.45;;;4.82;;
77298;SDS011;66361;52.034;20.656;2024-02-26T15:32:43;7.57;;;5.63;;
77298;SDS011;66361;52.034;20.656;2024-02-26T15:36:27;8.30;;;5.70;;
77298;SDS011;66361;52.034;20.656;2024-02-26T15:40:11;5.82;;;4.18;;
77298;SDS011;66361;52.034;20.656;2024-02-26T15:43:55;7.60;;;5.57;;
77298;SDS011;66361;52.034;20.656;2024-02-26T15:47:40;8.02;;;5.45;;
77298;SDS011;66361;52.034;20.656;2024-02-26T15:51:26;7.43;;;5.28;;
77298;SDS011;66361;52.034;20.656;2024-02-26T15:55:11;7.38;;;5.38;;
77298;SDS011;66361;52.034;20.656;2024-02-26T15:58:59;7.78;;;5.38;;
77298;SDS011;66361;52.034;20.656;2024-02-26T16:02:46;8.02;;;6.18;;
77298;SDS011;66361;52.034;20.656;2024-02-26T16:06:33;9.07;;;6.07;;
77298;SDS011;66361;52.034;20.656;2024-02-26T16:10:20;10.30;;;6.45;;
77298;SDS011;66361;52.034;20.656;2024-02-26T16:14:07;8.20;;;5.75;;
77298;SDS011;66361;52.034;20.656;2024-02-26T16:17:57;10.25;;;6.90;;
77298;SDS011;66361;52.034;20.656;2024-02-26T16:21:43;12.32;;;6.47;;
77298;SDS011;66361;52.034;20.656;2024-02-26T16:25:26;8.68;;;6.80;;
77298;SDS011;66361;52.034;20.656;2024-02-26T16:29:11;8.98;;;6.53;;
77298;SDS011;66361;52.034;20.656;2024-02-26T16:32:55;9.48;;;6.45;;
77298;SDS011;66361;52.034;20.656;2024-02-26T16:36:40;10.02;;;7.75;;
77298;SDS011;66361;52.034;20.656;2024-02-26T16:40:27;8.75;;;6.03;;
77298;SDS011;66361;52.034;20.656;2024-02-26T16:44:12;11.15;;;7.32;;
77298;SDS011;66361;52.034;20.656;2024-02-26T16:47:56;11.82;;;7.55;;
77298;SDS011;66361;52.034;20.656;2024-02-26T16:51:41;12.65;;;8.55;;
77298;SDS011;66361;52.034;20.656;2024-02-26T16:55:24;13.50;;;9.18;;
77298;SDS011;66361;52.034;20.656;2024-02-26T16:59:11;10.77;;;6.65;;
77298;SDS011;66361;52.034;20.656;2024-02-26T17:02:54;13.88;;;9.20;;
77298;SDS011;66361;52.034;20.656;2024-02-26T17:06:41;11.05;;;7.07;;
77298;SDS011;66361;52.034;20.656;2024-02-26T17:10:24;15.82;;;10.13;;
77298;SDS011;66361;52.034;20.656;2024-02-26T17:14:08;16.58;;;11.00;;
77298;SDS011;66361;52.034;20.656;2024-02-26T17:17:53;19.80;;;10.63;;
77298;SDS011;66361;52.034;20.656;2024-02-26T17:21:37;14.70;;;9.93;;
77298;SDS011;66361;52.034;20.656;2024-02-26T17:25:21;19.45;;;11.43;;
77298;SDS011;66361;52.034;20.656;2024-02-26T17:29:05;15.15;;;10.02;;
77298;SDS011;66361;52.034;20.656;2024-02-26T17:32:50;15.75;;;10.52;;
77298;SDS011;66361;52.034;20.656;2024-02-26T17:36:37;17.92;;;11.50;;
77298;SDS011;66361;52.034;20.656;2024-02-26T17:40:22;19.25;;;11.18;;
77298;SDS011;66361;52.034;20.656;2024-02-26T17:44:06;17.95;;;10.65;;
77298;SDS011;66361;52.034;20.656;2024-02-26T17:47:50;20.35;;;11.88;;
77298;SDS011;66361;52.034;20.656;2024-02-26T17:51:34;20.48;;;12.05;;
77298;SDS011;66361;52.034;20.656;2024-02-26T17:55:19;18.70;;;11.80;;
77298;SDS011;66361;52.034;20.656;2024-02-26T17:59:03;16.70;;;11.40;;
77298;SDS011;66361;52.034;20.656;2024-02-26T18:02:47;21.08;;;12.68;;
77298;SDS011;66361;52.034;20.656;2024-02-26T18:06:31;16.70;;;11.48;;
77298;SDS011;66361;52.034;20.656;2024-02-26T18:10:15;22.42;;;13.93;;
77298;SDS011;66361;52.034;20.656;2024-02-26T18:14:02;18.38;;;12.13;;
77298;SDS011;66361;52.034;20.656;2024-02-26T18:17:46;21.02;;;13.15;;
77298;SDS011;66361;52.034;20.656;2024-02-26T18:21:31;24.30;;;13.55;;
77298;SDS011;66361;52.034;20.656;2024-02-26T18:25:15;25.38;;;13.50;;
77298;SDS011;66361;52.034;20.656;2024-02-26T18:28:59;23.23;;;14.77;;
77298;SDS011;66361;52.034;20.656;2024-02-26T18:32:45;23.30;;;14.50;;
77298;SDS011;66361;52.034;20.656;2024-02-26T18:36:31;27.40;;;17.00;;
77298;SDS011;66361;52.034;20.656;2024-02-26T18:40:15;28.70;;;16.05;;
77298;SDS011;66361;52.034;20.656;2024-02-26T18:43:59;28.50;;;16.58;;
77298;SDS011;66361;52.034;20.656;2024-02-26T18:47:45;29.17;;;15.95;;
77298;SDS011;66361;52.034;20.656;2024-02-26T18:51:29;29.17;;;17.50;;
77298;SDS011;66361;52.034;20.656;2024-02-26T18:55:13;31.10;;;17.42;;
77298;SDS011;66361;52.034;20.656;2024-02-26T18:58:58;27.05;;;16.63;;
77298;SDS011;66361;52.034;20.656;2024-02-26T19:02:42;31.58;;;18.70;;
77298;SDS011;66361;52.034;20.656;2024-02-26T19:06:27;28.38;;;16.48;;
77298;SDS011;66361;52.034;20.656;2024-02-26T19:10:12;32.50;;;17.85;;
77298;SDS011;66361;52.034;20.656;2024-02-26T19:13:56;29.95;;;17.08;;
77298;SDS011;66361;52.034;20.656;2024-02-26T19:17:41;33.55;;;19.00;;
77298;SDS011;66361;52.034;20.656;2024-02-26T19:21:25;28.60;;;16.70;;
77298;SDS011;66361;52.034;20.656;2024-02-26T19:25:11;29.13;;;17.83;;
77298;SDS011;66361;52.034;20.656;2024-02-26T19:28:55;38.08;;;19.67;;
77298;SDS011;66361;52.034;20.656;2024-02-26T19:32:39;30.42;;;18.95;;
77298;SDS011;66361;52.034;20.656;2024-02-26T19:36:24;30.20;;;18.05;;
77298;SDS011;66361;52.034;20.656;2024-02-26T19:40:08;30.50;;;18.10;;
77298;SDS011;66361;52.034;20.656;2024-02-26T19:43:54;31.73;;;19.63;;
77298;SDS011;66361;52.034;20.656;2024-02-26T19:47:38;35.08;;;20.08;;
77298;SDS011;66361;52.034;20.656;2024-02-26T19:51:22;31.75;;;20.63;;
77298;SDS011;66361;52.034;20.656;2024-02-26T19:55:06;31.45;;;18.25;;
77298;SDS011;66361;52.034;20.656;2024-02-26T19:58:52;38.78;;;21.48;;
77298;SDS011;66361;52.034;20.656;2024-02-26T20:02:39;32.70;;;20.13;;
77298;SDS011;66361;52.034;20.656;2024-02-26T20:06:24;36.92;;;20.25;;
77298;SDS011;66361;52.034;20.656;2024-02-26T20:10:08;33.80;;;19.15;;
77298;SDS011;66361;52.034;20.656;2024-02-26T20:13:54;37.70;;;22.48;;
77298;SDS011;66361;52.034;20.656;2024-02-26T20:17:38;32.72;;;19.65;;
77298;SDS011;66361;52.034;20.656;2024-02-26T20:21:22;33.13;;;20.55;;
77298;SDS011;66361;52.034;20.656;2024-02-26T20:25:06;37.88;;;20.65;;
77298;SDS011;66361;52.034;20.656;2024-02-26T20:28:50;39.20;;;21.33;;
77298;SDS011;66361;52.034;20.656;2024-02-26T20:32:36;41.13;;;22.52;;
77298;SDS011;66361;52.034;20.656;2024-02-26T20:36:20;35.50;;;20.67;;
77298;SDS011;66361;52.034;20.656;2024-02-26T20:40:08;30.77;;;17.67;;
77298;SDS011;66361;52.034;20.656;2024-02-26T20:43:53;39.33;;;21.33;;
77298;SDS011;66361;52.034;20.656;2024-02-26T20:47:38;33.83;;;20.05;;
77298;SDS011;66361;52.034;20.656;2024-02-26T20:51:22;36.38;;;19.00;;
77298;SDS011;66361;52.034;20.656;2024-02-26T20:55:07;35.17;;;17.92;;
77298;SDS011;66361;52.034;20.656;2024-02-26T21:02:34;32.47;;;18.73;;
77298;SDS011;66361;52.034;20.656;2024-02-26T21:06:23;34.97;;;18.83;;
77298;SDS011;66361;52.034;20.656;2024-02-26T21:10:07;31.65;;;19.55;;
77298;SDS011;66361;52.034;20.656;2024-02-26T21:13:52;31.88;;;19.33;;
77298;SDS011;66361;52.034;20.656;2024-02-26T21:17:35;33.70;;;18.65;;
77298;SDS011;66361;52.034;20.656;2024-02-26T21:21:19;32.63;;;19.20;;
77298;SDS011;66361;52.034;20.656;2024-02-26T21:25:08;31.25;;;18.35;;
77298;SDS011;66361;52.034;20.656;2024-02-26T21:28:52;31.42;;;18.70;;
77298;SDS011;66361;52.034;20.656;2024-02-26T21:32:36;32.03;;;17.58;;
77298;SDS011;66361;52.034;20.656;2024-02-26T21:40:05;29.23;;;16.55;;
77298;SDS011;66361;52.034;20.656;2024-02-26T21:43:51;29.55;;;17.70;;
77298;SDS011;66361;52.034;20.656;2024-02-26T21:47:36;26.95;;;16.98;;
77298;SDS011;66361;52.034;20.656;2024-02-26T21:51:20;27.90;;;18.27;;
77298;SDS011;66361;52.034;20.656;2024-02-26T21:55:04;29.42;;;17.40;;
77298;SDS011;66361;52.034;20.656;2024-02-26T21:58:49;30.00;;;17.92;;
77298;SDS011;66361;52.034;20.656;2024-02-26T22:02:34;26.98;;;16.33;;
77298;SDS011;66361;52.034;20.656;2024-02-26T22:06:17;28.25;;;16.77;;
77298;SDS011;66361;52.034;20.656;2024-02-26T22:10:01;29.40;;;16.63;;
77298;SDS011;66361;52.034;20.656;2024-02-26T22:13:45;30.15;;;16.02;;
77298;SDS011;66361;52.034;20.656;2024-02-26T22:17:32;34.20;;;17.75;;
77298;SDS011;66361;52.034;20.656;2024-02-26T22:21:16;27.40;;;15.50;;
77298;SDS011;66361;52.034;20.656;2024-02-26T22:25:00;28.63;;;16.67;;
77298;SDS011;66361;52.034;20.656;2024-02-26T22:28:45;29.10;;;16.58;;
77298;SDS011;66361;52.034;20.656;2024-02-26T22:32:29;26.02;;;15.73;;
77298;SDS011;66361;52.034;20.656;2024-02-26T22:36:15;22.63;;;14.10;;
77298;SDS011;66361;52.034;20.656;2024-02-26T22:39:59;29.15;;;17.00;;
77298;SDS011;66361;52.034;20.656;2024-02-26T22:43:43;28.27;;;17.67;;
77298;SDS011;66361;52.034;20.656;2024-02-26T22:51:11;26.15;;;14.90;;
77298;SDS011;66361;52.034;20.656;2024-02-26T22:54:56;24.45;;;15.35;;